createdAt,value
2022-12-26T09:21:39.044Z,9.10
2022-12-26T09:24:09.247Z,9.00
2022-12-26T09:39:18.818Z,9.20
2022-12-26T09:42:01.064Z,9.10
2022-12-26T09:44:42.325Z,9.00
2022-12-26T09:47:21.421Z,9.10
2022-12-26T09:49:58.191Z,9.10
2022-12-26T09:52:34.071Z,9.10
2022-12-26T09:55:08.305Z,9.20
2022-12-26T09:57:40.693Z,9.20
2022-12-26T10:00:17.455Z,9.20
2022-12-26T10:02:50.495Z,9.20
2022-12-26T10:05:18.916Z,9.20
2022-12-26T10:07:53.072Z,9.20
2022-12-26T10:10:31.899Z,9.20
2022-12-26T10:13:11.546Z,9.20
2022-12-26T10:15:44.743Z,9.20
2022-12-26T10:18:29.627Z,9.20
2022-12-26T10:21:15.242Z,9.20
2022-12-26T10:23:47.119Z,9.10
2022-12-26T10:26:21.336Z,9.10
2022-12-26T10:28:54.490Z,9.00
2022-12-26T10:31:26.688Z,9.10
2022-12-26T10:33:59.724Z,9.00
2022-12-26T10:36:35.283Z,9.00
2022-12-26T10:39:07.256Z,9.00
2022-12-26T10:41:43.058Z,9.00
2022-12-26T10:44:12.887Z,9.10
2022-12-26T10:47:13.299Z,9.10
2022-12-26T10:49:42.262Z,9.10
2022-12-26T10:52:13.019Z,9.10
2022-12-26T10:54:41.940Z,9.10
2022-12-26T10:57:11.578Z,9.10
2022-12-26T10:59:45.673Z,9.00
2022-12-26T11:02:25.143Z,9.00
2022-12-26T11:07:52.581Z,9.00
2022-12-26T11:10:23.620Z,9.00
2022-12-26T11:12:54.619Z,8.90
2022-12-26T11:15:28.039Z,8.80
2022-12-26T11:18:07.965Z,8.80
2022-12-26T11:20:36.184Z,8.80
2022-12-26T11:23:26.896Z,8.80
2022-12-26T11:25:56.637Z,8.80
2022-12-26T11:28:32.937Z,8.70
2022-12-26T11:31:02.032Z,8.70
2022-12-26T11:33:33.805Z,8.70
2022-12-26T11:36:10.935Z,8.70
2022-12-26T11:38:49.571Z,8.70
2022-12-26T11:41:34.465Z,8.70
2022-12-26T11:44:22.395Z,8.70
2022-12-26T11:46:54.515Z,8.70
2022-12-26T11:49:29.363Z,8.70
2022-12-26T11:52:00.111Z,8.70
2022-12-26T11:54:35.034Z,8.60
2022-12-26T11:57:20.411Z,8.70
2022-12-26T11:59:51.019Z,8.60
2022-12-26T12:02:29.232Z,8.60
2022-12-26T12:05:02.772Z,8.60
2022-12-26T12:07:57.261Z,8.50
2022-12-26T12:10:50.431Z,8.60
2022-12-26T12:13:30.284Z,8.60
2022-12-26T12:16:10.330Z,8.60
2022-12-26T12:18:48.129Z,8.60
2022-12-26T12:21:26.462Z,8.70
2022-12-26T12:24:08.971Z,8.70
2022-12-26T12:26:47.381Z,8.70
2022-12-26T12:29:36.416Z,8.70
2022-12-26T12:32:14.238Z,8.70
2022-12-26T12:35:10.606Z,8.70
2022-12-26T12:37:59.168Z,8.70
2022-12-26T12:40:35.156Z,8.80
2022-12-26T12:43:10.935Z,8.70
2022-12-26T12:45:46.422Z,8.80
2022-12-26T12:48:37.358Z,8.90
2022-12-26T12:51:18.257Z,9.00
2022-12-26T12:54:04.344Z,9.00
2022-12-26T12:56:42.595Z,9.00
2022-12-26T12:59:25.990Z,8.90
2022-12-26T13:02:02.773Z,8.90
2022-12-26T13:04:41.012Z,8.90
2022-12-26T13:07:15.815Z,8.90
2022-12-26T13:09:47.444Z,8.90
2022-12-26T13:12:20.755Z,8.90
2022-12-26T13:14:53.110Z,8.90
2022-12-26T13:17:25.191Z,8.90
2022-12-26T13:20:02.641Z,8.90
2022-12-26T13:22:49.885Z,8.80
2022-12-26T13:25:19.669Z,8.80
2022-12-26T13:27:49.840Z,8.80
2022-12-26T13:30:19.081Z,8.90
2022-12-26T13:32:47.458Z,8.90
2022-12-26T13:35:55.272Z,8.90
2022-12-26T13:38:26.420Z,9.10
2022-12-26T13:41:18.923Z,9.40
2022-12-26T13:44:01.347Z,9.50
2022-12-26T13:46:55.664Z,9.50
2022-12-26T13:49:36.228Z,9.40
2022-12-26T13:52:33.812Z,9.30
2022-12-26T13:55:32.960Z,9.20
2022-12-26T13:58:24.781Z,9.20
2022-12-26T14:00:57.514Z,9.30
2022-12-26T14:03:50.452Z,9.40
2022-12-26T14:06:32.491Z,9.70
2022-12-26T14:09:21.878Z,9.90
2022-12-26T14:12:16.739Z,10.30
2022-12-26T14:15:09.836Z,10.80
2022-12-26T14:17:47.998Z,11.30
2022-12-26T14:20:38.858Z,11.80
2022-12-26T14:23:22.485Z,12.30
2022-12-26T14:26:00.798Z,12.70
2022-12-26T14:28:37.995Z,13.10
2022-12-26T14:31:16.247Z,13.60
2022-12-26T14:33:52.000Z,14.00
2022-12-26T14:36:28.980Z,14.10
2022-12-26T14:39:05.231Z,14.20
2022-12-26T14:42:47.400Z,14.00
2022-12-26T14:45:42.668Z,13.60
2022-12-26T14:48:43.852Z,12.60
2022-12-26T14:51:40.050Z,11.70
2022-12-26T14:54:50.920Z,11.00
2022-12-26T14:57:47.907Z,10.50
